CYWL

Details ICAO CYWL (YWL)
Name WILLIAMS LAKE
Region Canada
Timezone America/Vancouver (UTC-8.0)
Plans Departing 3
Arriving 15
Stats Elevation 3,085 ft / 940 m (AMSL)
Location 52.182502° -122.053475°
Runways 1
Magnetic Variation 16.805° E
Sunrise 2017-12-18 16:14:50 UTC / 2017-12-18 08:14:50 Local
Sunset 2017-12-18 23:57:51 UTC / 2017-12-18 15:57:51 Local
Advertisement - Login to hide

Runways

ID Width Length Bearing (true) Bearing (mag) Surface Threshold Offset Overrun Length
11 150 ft / 46 m 6,913 ft / 2,107 m 134.72° 117.92° Asphalt 0 ft / 0 m 300 ft / 91 m
29 150 ft / 46 m 6,913 ft / 2,107 m 314.74° 297.94° Asphalt 0 ft / 0 m 300 ft / 91 m

Map

Weather


0- 5 10 15 20 25 30 35+ Temperature / ° C

Clouds and Precipitation
Forecast for 2017-12-18 12:00 UTC. Updated 10 minutes ago

Ground ~20,000 ft ~40,000 ft Winds

METAR

CYWL 181100Z 23004KT 15SM SCT120 M04/M05 A2981 RMK AC3 SLP138

TAF

TAF CYWL 180638Z 1807/1819 31008KT 6SM -SN OVC050 TEMPO 1807/1809 2SM -SN OVC008 FM180900 14005KT P6SM OVC050 TEMPO 1809/1813 5SM -SN BKN020 OVC050 FM181300 11005KT P6SM BKN050 TEMPO 1813/1819 SCT050 RMK NXT FCST BY 181300Z

Frequencies

Tower 122.30 MHz MF WILLIAMS LAKE RDO
Warning: Do not use this data for real-world aviation or navigation. No guarantee of current accuracy is given.